createdAt,value
2022-12-08T00:02:02.021Z,99178.44
2022-12-08T00:04:31.684Z,99177.42
2022-12-08T00:07:15.215Z,99182.88
2022-12-08T00:09:42.739Z,99181.02
2022-12-08T00:12:13.638Z,99178.42
2022-12-08T00:14:43.501Z,99178.10
2022-12-08T00:17:14.371Z,99173.99
2022-12-08T00:19:43.379Z,99180.49
2022-12-08T00:22:12.822Z,99180.66
2022-12-08T00:24:41.976Z,99189.20
2022-12-08T00:27:12.397Z,99191.59
2022-12-08T00:29:40.267Z,99195.02
2022-12-08T00:32:08.086Z,99192.45
2022-12-08T00:34:35.915Z,99197.23
2022-12-08T00:37:03.663Z,99194.17
2022-12-08T00:39:31.449Z,99197.59
2022-12-08T00:42:15.156Z,99199.29
2022-12-08T00:44:45.762Z,99201.17
2022-12-08T00:47:14.413Z,99198.78
2022-12-08T00:49:42.207Z,99203.73
2022-12-08T00:52:09.895Z,99205.96
2022-12-08T00:54:37.477Z,99215.02
2022-12-08T00:57:05.034Z,99216.57
2022-12-08T00:59:33.200Z,99217.77
2022-12-08T01:02:04.679Z,99219.64
2022-12-08T01:04:32.521Z,99225.28
2022-12-08T01:07:00.218Z,99220.65
2022-12-08T01:09:27.672Z,99225.27
2022-12-08T01:11:55.235Z,99222.71
2022-12-08T01:14:22.772Z,99225.27
2022-12-08T01:16:50.692Z,99228.17
2022-12-08T01:19:20.117Z,99233.66
2022-12-08T01:21:50.487Z,99238.61
2022-12-08T01:24:20.599Z,99234.15
2022-12-08T01:26:51.103Z,99240.65
2022-12-08T01:29:18.696Z,99242.20
2022-12-08T01:31:46.276Z,99244.79
2022-12-08T01:34:14.211Z,99243.59
2022-12-08T01:36:44.225Z,99245.98
2022-12-08T01:39:17.735Z,99253.33
2022-12-08T01:41:47.723Z,99254.36
2022-12-08T01:44:16.034Z,99246.83
2022-12-08T01:46:47.293Z,99261.19
2022-12-08T01:49:23.124Z,99254.17
2022-12-08T01:52:04.512Z,99254.36
2022-12-08T01:54:36.787Z,99254.88
2022-12-08T01:57:10.049Z,99256.23
2022-12-08T01:59:49.882Z,99267.35
2022-12-08T02:02:17.453Z,99268.04
2022-12-08T02:04:45.172Z,99264.64
2022-12-08T02:07:15.527Z,99271.98
2022-12-08T02:09:44.727Z,99267.72
2022-12-08T02:12:12.838Z,99269.25
2022-12-08T02:14:43.114Z,99267.38
2022-12-08T02:17:24.569Z,99265.67
2022-12-08T02:20:16.723Z,99267.55
2022-12-08T02:22:50.462Z,99272.17
2022-12-08T02:25:41.939Z,99273.55
2022-12-08T02:28:41.392Z,99272.34
2022-12-08T02:31:45.078Z,99273.55
2022-12-08T02:34:29.545Z,99275.77
2022-12-08T02:37:18.160Z,99283.64
2022-12-08T02:40:11.000Z,99282.61
2022-12-08T02:42:48.248Z,99285.86
2022-12-08T02:45:34.493Z,99285.34
2022-12-08T02:48:02.570Z,99294.09
2022-12-08T02:50:30.178Z,99288.27
2022-12-08T02:52:57.815Z,99287.59
2022-12-08T02:55:32.726Z,99289.81
2022-12-08T02:58:06.142Z,99295.63
2022-12-08T03:00:53.850Z,99292.73
2022-12-08T03:04:03.915Z,99296.66
2022-12-08T03:06:40.211Z,99301.27
2022-12-08T03:09:36.104Z,99300.77
2022-12-08T03:12:20.820Z,99302.99
2022-12-08T03:14:52.797Z,99306.25
2022-12-08T03:17:25.908Z,99305.55
2022-12-08T03:19:56.794Z,99307.27
2022-12-08T03:22:27.672Z,99307.45
2022-12-08T03:24:56.927Z,99307.62
2022-12-08T03:27:31.391Z,99307.79
2022-12-08T03:30:00.630Z,99310.18
2022-12-08T03:32:47.998Z,99310.52
2022-12-08T03:35:20.771Z,99314.98
2022-12-08T03:37:48.450Z,99324.23
2022-12-08T03:40:18.251Z,99325.42
2022-12-08T03:42:45.782Z,99331.05
2022-12-08T03:45:13.261Z,99328.48
2022-12-08T03:47:40.761Z,99328.66
2022-12-08T03:50:08.617Z,99335.52
2022-12-08T03:52:36.189Z,99329.86
2022-12-08T03:55:03.934Z,99333.10
2022-12-08T03:57:31.422Z,99339.10
2022-12-08T03:59:58.901Z,99337.55
2022-12-08T04:02:28.823Z,99338.08
2022-12-08T04:04:56.465Z,99333.63
2022-12-08T04:07:23.948Z,99341.66
2022-12-08T04:09:51.445Z,99343.56
2022-12-08T04:12:18.906Z,99345.41
2022-12-08T04:14:46.536Z,99343.71
2022-12-08T04:17:13.993Z,99347.80
2022-12-08T04:19:41.488Z,99347.45
2022-12-08T04:22:08.969Z,99347.10
2022-12-08T04:24:36.451Z,99345.56
2022-12-08T04:27:04.017Z,99347.63
2022-12-08T04:29:31.490Z,99346.23
2022-12-08T04:31:59.045Z,99346.76
2022-12-08T04:34:26.646Z,99352.39
2022-12-08T04:36:54.176Z,99347.60
2022-12-08T04:39:21.685Z,99350.69
2022-12-08T04:41:49.166Z,99349.99
2022-12-08T04:44:16.738Z,99355.63
2022-12-08T04:46:44.292Z,99354.45
2022-12-08T04:49:11.842Z,99356.33
2022-12-08T04:51:39.342Z,99357.68
2022-12-08T04:54:06.840Z,99358.88
2022-12-08T04:56:34.382Z,99367.08
2022-12-08T04:59:02.473Z,99365.36
2022-12-08T05:01:30.084Z,99369.15
2022-12-08T05:03:57.733Z,99371.36
2022-12-08T05:06:25.246Z,99373.07
2022-12-08T05:08:52.793Z,99373.42
2022-12-08T05:11:20.300Z,99373.62
2022-12-08T05:13:47.764Z,99376.67
2022-12-08T05:16:16.509Z,99376.86
2022-12-08T05:18:44.528Z,99375.48
2022-12-08T05:21:12.114Z,99381.28
2022-12-08T05:23:39.823Z,99380.44
2022-12-08T05:26:07.319Z,99378.04
2022-12-08T05:28:43.290Z,99386.41
2022-12-08T05:31:16.518Z,99384.86
2022-12-08T05:33:45.370Z,99390.16
2022-12-08T05:36:14.977Z,99387.25
2022-12-08T05:38:43.261Z,99390.33
2022-12-08T05:41:15.543Z,99391.19
2022-12-08T05:43:43.047Z,99394.60
2022-12-08T05:46:11.835Z,99394.80
2022-12-08T05:48:40.149Z,99394.63
2022-12-08T05:51:17.558Z,99397.70
2022-12-08T05:53:46.474Z,99403.52
2022-12-08T05:56:14.171Z,99398.88
2022-12-08T05:58:41.890Z,99402.83
2022-12-08T06:01:27.460Z,99405.56
2022-12-08T06:03:56.742Z,99408.14
2022-12-08T06:06:24.609Z,99405.90
2022-12-08T06:08:52.184Z,99411.88
2022-12-08T06:11:26.061Z,99412.55
2022-12-08T06:13:55.919Z,99413.40
2022-12-08T06:16:26.302Z,99418.02
2022-12-08T06:18:55.228Z,99417.00
2022-12-08T06:21:23.318Z,99419.55
2022-12-08T06:23:53.328Z,99419.55
2022-12-08T06:26:21.590Z,99426.41
2022-12-08T06:28:50.455Z,99428.80
2022-12-08T06:31:19.593Z,99433.93
2022-12-08T06:33:47.891Z,99440.41
2022-12-08T06:36:17.642Z,99443.48
2022-12-08T06:38:47.938Z,99450.81
2022-12-08T06:41:15.717Z,99449.94
2022-12-08T06:43:43.913Z,99455.23
2022-12-08T06:46:17.286Z,99455.05
2022-12-08T06:48:45.334Z,99462.08
2022-12-08T06:51:16.912Z,99460.19
2022-12-08T06:53:45.875Z,99461.20
2022-12-08T06:56:15.994Z,99468.02
2022-12-08T06:58:49.043Z,99467.69
2022-12-08T07:01:20.104Z,99465.63
2022-12-08T07:03:47.866Z,99466.46
2022-12-08T07:06:18.790Z,99468.19
2022-12-08T07:08:46.483Z,99472.11
2022-12-08T07:11:19.635Z,99476.73
2022-12-08T07:13:49.486Z,99472.13
2022-12-08T07:16:17.110Z,99473.83
2022-12-08T07:18:44.728Z,99478.77
2022-12-08T07:21:16.826Z,99482.86
2022-12-08T07:23:54.453Z,99489.54
2022-12-08T07:26:25.437Z,99490.58
2022-12-08T07:28:52.896Z,99495.88
2022-12-08T07:31:23.488Z,99495.38
2022-12-08T07:33:51.780Z,99499.98
2022-12-08T07:36:19.614Z,99504.27
2022-12-08T07:38:48.160Z,99499.81
2022-12-08T07:41:19.667Z,99501.88
2022-12-08T07:43:50.700Z,99509.75
2022-12-08T07:46:20.759Z,99509.45
2022-12-08T07:48:48.463Z,99511.54
2022-12-08T07:51:17.045Z,99516.83
2022-12-08T07:53:53.698Z,99520.05
2022-12-08T07:56:22.678Z,99526.68
2022-12-08T07:58:51.368Z,99527.72
2022-12-08T08:01:21.959Z,99527.90
2022-12-08T08:03:51.093Z,99523.83
2022-12-08T08:06:18.615Z,99532.90
2022-12-08T08:08:46.113Z,99532.21
2022-12-08T08:11:20.831Z,99527.42
2022-12-08T08:13:51.185Z,99524.52
2022-12-08T08:16:19.308Z,99525.38
2022-12-08T08:18:49.033Z,99525.39
2022-12-08T08:24:06.391Z,99533.27
2022-12-08T08:26:34.532Z,99531.55
2022-12-08T08:29:02.010Z,99528.67
2022-12-08T08:31:29.569Z,99531.27
2022-12-08T08:33:57.243Z,99530.23
2022-12-08T08:36:24.848Z,99530.95
2022-12-08T08:38:52.318Z,99535.23
2022-12-08T08:41:19.846Z,99535.39
2022-12-08T08:43:47.433Z,99534.04
2022-12-08T08:46:15.037Z,99539.84
2022-12-08T08:48:42.699Z,99539.84
2022-12-08T08:51:13.528Z,99540.53
2022-12-08T08:53:42.048Z,99539.52
2022-12-08T08:56:11.028Z,99540.40
2022-12-08T08:58:39.173Z,99539.91
2022-12-08T09:01:06.706Z,99540.07
2022-12-08T09:03:34.502Z,99539.89
2022-12-08T09:06:02.095Z,99537.67
2022-12-08T09:08:29.884Z,99537.69
2022-12-08T09:10:57.612Z,99533.60
2022-12-08T09:13:25.210Z,99538.95
2022-12-08T09:15:52.960Z,99537.08
2022-12-08T09:18:20.602Z,99533.35
2022-12-08T09:20:48.104Z,99534.23
2022-12-08T09:23:15.601Z,99530.98
2022-12-08T09:25:46.531Z,99525.17
2022-12-08T09:28:14.892Z,99527.25
2022-12-08T09:30:42.572Z,99521.60
2022-12-08T09:33:10.089Z,99522.29
2022-12-08T09:35:37.819Z,99520.93
2022-12-08T09:38:05.455Z,99523.17
2022-12-08T09:40:42.202Z,99523.66
2022-12-08T09:43:31.589Z,99518.20
2022-12-08T09:45:59.487Z,99518.88
2022-12-08T09:48:59.944Z,99521.30
2022-12-08T09:51:36.450Z,99515.34
2022-12-08T09:54:20.745Z,99511.09
2022-12-08T09:56:52.354Z,99508.70
2022-12-08T09:59:31.120Z,99505.83
2022-12-08T10:02:00.867Z,99501.91
2022-12-08T10:04:32.782Z,99496.10
2022-12-08T10:07:34.426Z,99496.48
2022-12-08T10:10:17.844Z,99492.05
2022-12-08T10:12:51.312Z,99485.05
2022-12-08T10:15:40.056Z,99481.46
2022-12-08T10:18:20.201Z,99483.34
2022-12-08T10:20:49.802Z,99476.84
2022-12-08T10:23:35.948Z,99470.48
2022-12-08T10:26:07.602Z,99467.20
2022-12-08T10:28:44.515Z,99471.14
2022-12-08T10:33:59.567Z,99465.26
2022-12-08T10:36:47.240Z,99461.60
2022-12-08T10:39:45.779Z,99455.02
2022-12-08T10:42:22.051Z,99455.80
2022-12-08T10:45:02.480Z,99449.05
2022-12-08T10:47:35.064Z,99448.83
2022-12-08T10:50:19.248Z,99447.08
2022-12-08T10:53:02.968Z,99442.94
2022-12-08T10:55:47.179Z,99445.52
2022-12-08T10:58:34.316Z,99439.85
2022-12-08T11:01:25.609Z,99437.80
2022-12-08T11:04:03.930Z,99432.16
2022-12-08T11:06:40.665Z,99421.57
2022-12-08T11:09:30.991Z,99421.41
2022-12-08T11:12:14.456Z,99422.30
2022-12-08T11:14:44.688Z,99417.17
2022-12-08T11:17:24.844Z,99414.08
2022-12-08T11:19:59.990Z,99412.70
2022-12-08T11:22:30.539Z,99409.26
2022-12-08T11:25:05.238Z,99407.71
2022-12-08T11:27:34.846Z,99406.16
2022-12-08T11:30:12.652Z,99407.35
2022-12-08T11:32:44.790Z,99401.35
2022-12-08T11:35:24.503Z,99397.42
2022-12-08T11:38:03.093Z,99398.66
2022-12-08T11:40:43.748Z,99390.98
2022-12-08T11:43:30.371Z,99387.76
2022-12-08T11:46:04.582Z,99383.48
2022-12-08T11:49:05.557Z,99381.27
2022-12-08T11:52:05.998Z,99377.16
2022-12-08T11:54:44.574Z,99373.20
2022-12-08T11:57:16.469Z,99365.83
2022-12-08T11:59:49.546Z,99367.37
2022-12-08T12:02:30.747Z,99364.66
2022-12-08T12:05:17.404Z,99362.28
2022-12-08T12:08:13.274Z,99359.91
2022-12-08T12:11:02.919Z,99351.55
2022-12-08T12:13:49.406Z,99347.44
2022-12-08T12:17:00.557Z,99347.95
2022-12-08T12:19:30.967Z,99347.80
2022-12-08T12:22:05.530Z,99344.54
2022-12-08T12:24:37.826Z,99343.52
2022-12-08T12:27:21.570Z,99341.11
2022-12-08T12:30:19.245Z,99340.78
2022-12-08T12:33:19.640Z,99336.36
2022-12-08T12:35:48.378Z,99328.62
2022-12-08T12:38:41.695Z,99326.73
2022-12-08T12:41:10.732Z,99329.48
2022-12-08T12:43:39.287Z,99329.48
2022-12-08T12:46:22.867Z,99329.16
2022-12-08T12:48:51.792Z,99328.15
2022-12-08T12:51:44.120Z,99321.98
2022-12-08T12:54:23.863Z,99328.33
2022-12-08T12:56:55.556Z,99336.23
2022-12-08T12:59:29.037Z,99334.35
2022-12-08T13:01:57.072Z,99330.77
2022-12-08T13:04:37.073Z,99329.57
2022-12-08T13:07:05.316Z,99329.05
2022-12-08T13:09:37.143Z,99329.39
2022-12-08T13:12:11.441Z,99330.93
2022-12-08T13:14:47.460Z,99331.08
2022-12-08T13:17:24.763Z,99334.87
2022-12-08T13:19:55.859Z,99332.48
2022-12-08T13:22:49.478Z,99329.21
2022-12-08T13:25:39.454Z,99330.41
2022-12-08T13:28:33.408Z,99327.68
2022-12-08T13:31:02.690Z,99330.92
2022-12-08T13:33:46.938Z,99337.11
2022-12-08T13:36:28.868Z,99332.30
2022-12-08T13:38:59.153Z,99334.54
2022-12-08T13:41:35.761Z,99331.96
2022-12-08T13:53:41.990Z,99335.70
2022-12-08T13:58:43.285Z,99336.75
2022-12-08T14:01:26.819Z,99337.09
2022-12-08T14:04:31.017Z,99334.35
2022-12-08T14:06:48.603Z,99335.38
2022-12-08T14:09:21.081Z,99335.20
2022-12-08T14:12:19.521Z,99333.66
2022-12-08T14:15:06.017Z,99333.14
2022-12-08T14:17:34.312Z,99329.19
2022-12-08T14:20:13.969Z,99329.02
2022-12-08T14:22:41.911Z,99323.71
2022-12-08T14:25:14.642Z,99321.98
2022-12-08T14:27:42.636Z,99323.54
2022-12-08T14:30:16.058Z,99327.30
2022-12-08T14:32:52.539Z,99324.91
2022-12-08T14:35:23.237Z,99326.11
2022-12-08T14:37:58.483Z,99324.40
2022-12-08T14:40:35.826Z,99323.54
2022-12-08T14:43:09.365Z,99324.38
2022-12-08T14:45:42.945Z,99325.92
2022-12-08T14:48:39.247Z,99330.88
2022-12-08T14:51:44.518Z,99336.71
2022-12-08T14:54:15.456Z,99339.98
2022-12-08T14:56:54.532Z,99337.75
2022-12-08T14:59:30.249Z,99333.79
2022-12-08T15:02:19.396Z,99338.42
2022-12-08T15:04:50.040Z,99338.41
2022-12-08T15:07:21.834Z,99335.66
2022-12-08T15:10:07.141Z,99335.31
2022-12-08T15:12:35.813Z,99335.31
2022-12-08T15:15:09.422Z,99341.48
2022-12-08T15:17:40.060Z,99343.55
2022-12-08T15:20:35.368Z,99344.06
2022-12-08T15:23:04.120Z,99340.63
2022-12-08T15:25:32.065Z,99341.84
2022-12-08T15:28:02.317Z,99343.73
2022-12-08T15:30:30.295Z,99340.97
2022-12-08T15:32:57.801Z,99342.16
2022-12-08T15:35:25.738Z,99339.41
2022-12-08T15:37:53.475Z,99337.85
2022-12-08T15:40:27.111Z,99337.48
2022-12-08T15:42:54.612Z,99335.95
2022-12-08T15:45:28.554Z,99339.20
2022-12-08T15:47:56.604Z,99334.58
2022-12-08T15:50:24.146Z,99335.27
2022-12-08T15:52:51.645Z,99333.56
2022-12-08T15:55:21.344Z,99334.08
2022-12-08T15:58:51.108Z,99334.58
2022-12-08T16:00:56.503Z,99338.17
2022-12-08T16:04:13.921Z,99337.67
2022-12-08T16:09:33.104Z,99339.39
2022-12-08T16:12:16.902Z,99341.61
2022-12-08T16:15:47.183Z,99339.71
2022-12-08T16:17:32.984Z,99342.63
2022-12-08T16:20:01.078Z,99341.09
2022-12-08T16:25:21.437Z,99345.36
2022-12-08T16:28:36.817Z,99342.62
2022-12-08T16:30:39.428Z,99340.20
2022-12-08T16:33:06.992Z,99336.61
2022-12-08T16:35:34.551Z,99337.64
2022-12-08T16:38:02.148Z,99338.84
2022-12-08T16:40:30.427Z,99339.17
2022-12-08T16:42:57.975Z,99339.02
2022-12-08T16:45:28.239Z,99337.82
2022-12-08T16:47:58.628Z,99335.25
2022-12-08T16:50:29.337Z,99334.74
2022-12-08T16:53:05.903Z,99335.25
2022-12-08T16:55:34.083Z,99337.30
2022-12-08T16:58:03.497Z,99338.70
2022-12-08T17:00:36.871Z,99339.55
2022-12-08T17:03:07.938Z,99340.23
2022-12-08T17:05:36.081Z,99341.59
2022-12-08T17:08:03.959Z,99344.50
2022-12-08T17:10:34.437Z,99338.99
2022-12-08T17:13:02.280Z,99343.31
2022-12-08T17:15:29.842Z,99343.48
2022-12-08T17:17:57.288Z,99345.54
2022-12-08T17:20:26.997Z,99339.52
2022-12-08T17:22:56.352Z,99339.52
2022-12-08T17:25:25.901Z,99339.51
2022-12-08T17:27:53.975Z,99335.73
2022-12-08T17:30:21.750Z,99335.20
2022-12-08T17:32:49.305Z,99338.64
2022-12-08T17:35:16.813Z,99336.95
2022-12-08T17:37:44.417Z,99341.26
2022-12-08T17:40:12.016Z,99341.94
2022-12-08T17:42:39.561Z,99341.42
2022-12-08T17:45:08.257Z,99339.70
2022-12-08T17:47:37.192Z,99341.42
2022-12-08T17:50:06.627Z,99339.02
2022-12-08T17:52:34.603Z,99339.88
2022-12-08T17:55:02.950Z,99339.88
2022-12-08T17:57:30.679Z,99335.77
2022-12-08T17:59:58.211Z,99329.77
2022-12-08T18:02:25.762Z,99324.80
2022-12-08T18:04:53.361Z,99324.45
2022-12-08T18:07:20.845Z,99323.25
2022-12-08T18:09:48.388Z,99324.96
2022-12-08T18:12:20.687Z,99324.45
2022-12-08T18:14:52.254Z,99324.27
2022-12-08T18:17:20.628Z,99322.55
2022-12-08T18:19:48.385Z,99318.77
2022-12-08T18:22:15.993Z,99317.56
2022-12-08T18:24:43.871Z,99318.75
2022-12-08T18:27:11.346Z,99319.77
2022-12-08T18:29:38.943Z,99318.05
2022-12-08T18:32:07.031Z,99317.52
2022-12-08T18:34:35.242Z,99316.15
2022-12-08T18:37:02.843Z,99320.29
2022-12-08T18:39:32.558Z,99319.42
2022-12-08T18:42:02.654Z,99313.75
2022-12-08T18:44:30.181Z,99309.98
2022-12-08T18:46:57.679Z,99303.80
2022-12-08T18:49:26.431Z,99301.07
2022-12-08T18:51:54.024Z,99304.84
2022-12-08T18:54:27.716Z,99302.61
2022-12-08T18:57:05.980Z,99302.61
2022-12-08T18:59:33.729Z,99304.65
2022-12-08T19:02:01.233Z,99303.09
2022-12-08T19:04:29.537Z,99306.69
2022-12-08T19:06:57.656Z,99303.96
2022-12-08T19:09:26.929Z,99299.33
2022-12-08T19:11:55.441Z,99297.96
2022-12-08T19:14:27.894Z,99299.86
2022-12-08T19:16:57.668Z,99295.91
2022-12-08T19:19:27.794Z,99295.05
2022-12-08T19:21:56.369Z,99295.26
2022-12-08T19:24:24.736Z,99294.92
2022-12-08T19:26:52.562Z,99290.98
2022-12-08T19:29:20.431Z,99292.86
2022-12-08T19:31:48.132Z,99287.38
2022-12-08T19:34:15.885Z,99289.42
2022-12-08T19:36:44.662Z,99286.86
2022-12-08T19:39:37.299Z,99289.46
2022-12-08T19:42:28.812Z,99292.40
2022-12-08T19:45:00.241Z,99290.21
2022-12-08T19:47:27.834Z,99289.71
2022-12-08T19:50:16.134Z,99290.41
2022-12-08T19:52:44.760Z,99289.06
2022-12-08T19:55:13.217Z,99285.46
2022-12-08T19:57:41.417Z,99282.23
2022-12-08T20:00:10.941Z,99283.77
2022-12-08T20:02:39.068Z,99284.80
2022-12-08T20:05:07.886Z,99286.53
2022-12-08T20:07:35.750Z,99285.16
2022-12-08T20:10:09.802Z,99283.11
2022-12-08T20:12:37.354Z,99283.80
2022-12-08T20:15:05.366Z,99281.23
2022-12-08T20:17:32.879Z,99280.21
2022-12-08T20:20:05.239Z,99277.98
2022-12-08T20:22:35.069Z,99283.13
2022-12-08T20:25:03.844Z,99281.08
2022-12-08T20:27:32.646Z,99283.98
2022-12-08T20:30:00.164Z,99286.38
2022-12-08T20:32:27.778Z,99287.75
2022-12-08T20:34:55.411Z,99286.55
2022-12-08T20:37:22.889Z,99288.45
2022-12-08T20:39:52.305Z,99295.99
2022-12-08T20:42:20.174Z,99299.24
2022-12-08T20:44:47.701Z,99303.52
2022-12-08T20:47:15.969Z,99306.95
2022-12-08T20:49:43.707Z,99303.02
2022-12-08T20:52:11.306Z,99295.29
2022-12-08T20:54:39.218Z,99300.77
2022-12-08T20:57:06.975Z,99306.25
2022-12-08T20:59:35.371Z,99307.95
2022-12-08T21:02:03.134Z,99307.59
2022-12-08T21:04:30.895Z,99310.33
2022-12-08T21:06:59.649Z,99309.30
2022-12-08T21:09:27.478Z,99313.08
2022-12-08T21:11:55.231Z,99313.75
2022-12-08T21:14:22.813Z,99313.58
2022-12-08T21:16:50.996Z,99315.29
2022-12-08T21:19:19.931Z,99316.48
2022-12-08T21:21:48.232Z,99314.59
2022-12-08T21:24:17.261Z,99317.50
2022-12-08T21:26:44.827Z,99317.84
2022-12-08T21:29:13.104Z,99318.53
2022-12-08T21:31:40.940Z,99318.54
2022-12-08T21:34:10.552Z,99321.11
2022-12-08T21:36:38.499Z,99325.05
2022-12-08T21:39:11.741Z,99327.77
2022-12-08T21:41:55.989Z,99323.84
2022-12-08T21:44:24.110Z,99324.52
2022-12-08T21:46:52.202Z,99321.09
2022-12-08T21:49:19.939Z,99327.09
2022-12-08T21:51:47.551Z,99325.55
2022-12-08T21:54:18.947Z,99325.20
2022-12-08T21:56:49.090Z,99325.90
2022-12-08T21:59:18.265Z,99328.47
2022-12-08T22:01:46.932Z,99331.55
2022-12-08T22:04:21.363Z,99333.61
2022-12-08T22:06:49.390Z,99331.89
2022-12-08T22:09:17.453Z,99333.45
2022-12-08T22:11:45.272Z,99332.56
2022-12-08T22:14:15.200Z,99330.34
2022-12-08T22:16:44.073Z,99329.66
2022-12-08T22:19:12.608Z,99331.54
2022-12-08T22:21:40.732Z,99331.36
2022-12-08T22:24:09.068Z,99331.70
2022-12-08T22:26:36.775Z,99331.86
2022-12-08T22:29:04.498Z,99334.09
2022-12-08T22:31:32.718Z,99337.15
2022-12-08T22:34:00.648Z,99340.59
2022-12-08T22:36:28.801Z,99340.08
2022-12-08T22:38:56.505Z,99342.83
2022-12-08T22:41:24.478Z,99343.15
2022-12-08T22:43:52.344Z,99344.85
2022-12-08T22:46:22.877Z,99343.48
2022-12-08T22:48:51.542Z,99346.57
2022-12-08T22:51:19.878Z,99349.31
2022-12-08T22:53:47.823Z,99350.01
2022-12-08T22:56:16.700Z,99349.31
2022-12-08T22:58:45.561Z,99354.96
2022-12-08T23:01:30.835Z,99358.73
2022-12-08T23:04:00.221Z,99354.79
2022-12-08T23:06:29.247Z,99352.40
2022-12-08T23:08:57.316Z,99354.11
2022-12-08T23:11:28.826Z,99353.62
2022-12-08T23:14:01.054Z,99355.34
2022-12-08T23:16:29.618Z,99351.56
2022-12-08T23:18:58.787Z,99352.26
2022-12-08T23:21:29.730Z,99348.98
2022-12-08T23:23:57.311Z,99349.15
2022-12-08T23:26:27.595Z,99349.14
2022-12-08T23:29:21.886Z,99348.29
2022-12-08T23:31:57.262Z,99349.52
2022-12-08T23:34:24.932Z,99344.17
2022-12-08T23:36:52.498Z,99344.51
2022-12-08T23:39:24.138Z,99345.23
2022-12-08T23:41:51.756Z,99348.82
2022-12-08T23:44:19.287Z,99347.95
2022-12-08T23:46:46.866Z,99347.29
2022-12-08T23:49:14.725Z,99351.92
2022-12-08T23:51:42.385Z,99351.27
2022-12-08T23:54:10.101Z,99350.93
2022-12-08T23:56:37.822Z,99353.86
2022-12-08T23:59:05.405Z,99349.94
